sensor_id;sensor_type;location;lat;lon;timestamp;temperature;humidity
3713;DHT22;1872;51.406;6.856;2024-03-23T00:53:40;7.50;99.90
3713;DHT22;1872;51.406;6.856;2024-03-23T00:56:05;7.50;99.90
3713;DHT22;1872;51.406;6.856;2024-03-23T00:58:31;7.60;99.90
3713;DHT22;1872;51.406;6.856;2024-03-23T01:00:57;7.60;99.90
3713;DHT22;1872;51.406;6.856;2024-03-23T01:03:23;7.60;99.90
3713;DHT22;1872;51.406;6.856;2024-03-23T01:05:48;7.60;99.90
3713;DHT22;1872;51.406;6.856;2024-03-23T01:08:14;7.60;99.90
3713;DHT22;1872;51.406;6.856;2024-03-23T01:10:40;7.50;99.90
3713;DHT22;1872;51.406;6.856;2024-03-23T01:13:06;7.50;99.90
3713;DHT22;1872;51.406;6.856;2024-03-23T01:15:32;7.50;99.90
3713;DHT22;1872;51.406;6.856;2024-03-23T01:17:57;7.40;99.90
3713;DHT22;1872;51.406;6.856;2024-03-23T01:20:23;7.30;99.90
3713;DHT22;1872;51.406;6.856;2024-03-23T01:22:50;7.30;99.90
3713;DHT22;1872;51.406;6.856;2024-03-23T01:25:15;7.30;99.90
3713;DHT22;1872;51.406;6.856;2024-03-23T01:27:41;7.20;99.90
3713;DHT22;1872;51.406;6.856;2024-03-23T01:30:07;7.20;99.90
3713;DHT22;1872;51.406;6.856;2024-03-23T01:32:34;7.10;99.90
3713;DHT22;1872;51.406;6.856;2024-03-23T01:35:00;7.10;99.90
3713;DHT22;1872;51.406;6.856;2024-03-23T01:37:25;7.20;99.90
3713;DHT22;1872;51.406;6.856;2024-03-23T01:39:51;7.10;99.90
3713;DHT22;1872;51.406;6.856;2024-03-23T01:42:16;7.10;99.90
3713;DHT22;1872;51.406;6.856;2024-03-23T01:44:42;7.10;99.90
3713;DHT22;1872;51.406;6.856;2024-03-23T01:47:08;7.20;99.90
3713;DHT22;1872;51.406;6.856;2024-03-23T01:49:35;7.20;99.90
3713;DHT22;1872;51.406;6.856;2024-03-23T01:52:01;7.20;99.90
3713;DHT22;1872;51.406;6.856;2024-03-23T01:54:27;7.10;99.90
3713;DHT22;1872;51.406;6.856;2024-03-23T01:56:54;7.10;99.90
3713;DHT22;1872;51.406;6.856;2024-03-23T01:59:20;7.10;99.90
3713;DHT22;1872;51.406;6.856;2024-03-23T02:01:46;7.20;99.90
3713;DHT22;1872;51.406;6.856;2024-03-23T02:04:12;7.20;99.90
3713;DHT22;1872;51.406;6.856;2024-03-23T02:06:37;7.10;99.90
3713;DHT22;1872;51.406;6.856;2024-03-23T02:09:03;7.10;99.90
3713;DHT22;1872;51.406;6.856;2024-03-23T02:11:29;7.00;99.90
3713;DHT22;1872;51.406;6.856;2024-03-23T02:13:55;7.00;99.90
3713;DHT22;1872;51.406;6.856;2024-03-23T02:16:21;7.00;99.90
3713;DHT22;1872;51.406;6.856;2024-03-23T02:18:46;7.10;99.90
3713;DHT22;1872;51.406;6.856;2024-03-23T02:21:12;7.10;99.90
3713;DHT22;1872;51.406;6.856;2024-03-23T02:23:38;7.10;99.90
3713;DHT22;1872;51.406;6.856;2024-03-23T02:26:04;7.10;99.90
3713;DHT22;1872;51.406;6.856;2024-03-23T02:28:29;7.10;99.90
3713;DHT22;1872;51.406;6.856;2024-03-23T02:30:55;7.10;99.90
3713;DHT22;1872;51.406;6.856;2024-03-23T02:33:21;7.10;99.90
3713;DHT22;1872;51.406;6.856;2024-03-23T02:35:47;7.10;99.90
3713;DHT22;1872;51.406;6.856;2024-03-23T02:38:13;7.10;99.90
3713;DHT22;1872;51.406;6.856;2024-03-23T02:40:38;7.00;99.90
3713;DHT22;1872;51.406;6.856;2024-03-23T02:43:04;6.90;99.90
3713;DHT22;1872;51.406;6.856;2024-03-23T02:45:30;7.00;99.90
3713;DHT22;1872;51.406;6.856;2024-03-23T02:47:56;7.00;99.90
3713;DHT22;1872;51.406;6.856;2024-03-23T02:50:22;7.10;99.90
3713;DHT22;1872;51.406;6.856;2024-03-23T02:52:48;7.00;99.90
3713;DHT22;1872;51.406;6.856;2024-03-23T02:55:14;7.00;99.90
3713;DHT22;1872;51.406;6.856;2024-03-23T02:57:40;7.00;99.90
3713;DHT22;1872;51.406;6.856;2024-03-23T03:00:07;7.00;99.90
3713;DHT22;1872;51.406;6.856;2024-03-23T03:02:34;7.00;99.90
3713;DHT22;1872;51.406;6.856;2024-03-23T03:05:00;7.00;99.90
3713;DHT22;1872;51.406;6.856;2024-03-23T03:07:26;7.10;99.90
3713;DHT22;1872;51.406;6.856;2024-03-23T03:09:52;7.10;99.90
3713;DHT22;1872;51.406;6.856;2024-03-23T03:12:17;7.10;99.90
3713;DHT22;1872;51.406;6.856;2024-03-23T03:14:43;7.10;99.90
3713;DHT22;1872;51.406;6.856;2024-03-23T03:17:09;7.10;99.90
3713;DHT22;1872;51.406;6.856;2024-03-23T03:19:34;7.10;99.90
3713;DHT22;1872;51.406;6.856;2024-03-23T03:22:00;7.10;99.90
3713;DHT22;1872;51.406;6.856;2024-03-23T03:24:26;7.00;99.90
3713;DHT22;1872;51.406;6.856;2024-03-23T03:26:51;7.00;99.90
3713;DHT22;1872;51.406;6.856;2024-03-23T03:29:17;7.00;99.90
3713;DHT22;1872;51.406;6.856;2024-03-23T03:31:43;7.10;99.90
3713;DHT22;1872;51.406;6.856;2024-03-23T03:34:09;7.00;99.90
3713;DHT22;1872;51.406;6.856;2024-03-23T03:36:35;7.10;99.90
3713;DHT22;1872;51.406;6.856;2024-03-23T03:39:01;7.00;99.90
3713;DHT22;1872;51.406;6.856;2024-03-23T03:41:28;7.00;99.90
3713;DHT22;1872;51.406;6.856;2024-03-23T03:43:54;7.00;99.90
3713;DHT22;1872;51.406;6.856;2024-03-23T03:46:21;7.00;99.90
3713;DHT22;1872;51.406;6.856;2024-03-23T03:48:46;7.00;99.90
3713;DHT22;1872;51.406;6.856;2024-03-23T03:51:14;7.00;99.90
3713;DHT22;1872;51.406;6.856;2024-03-23T03:53:40;7.00;99.90
3713;DHT22;1872;51.406;6.856;2024-03-23T03:56:06;7.00;99.90
3713;DHT22;1872;51.406;6.856;2024-03-23T03:58:32;7.10;99.90
3713;DHT22;1872;51.406;6.856;2024-03-23T04:00:58;7.10;99.90
3713;DHT22;1872;51.406;6.856;2024-03-23T04:03:23;7.10;99.90
3713;DHT22;1872;51.406;6.856;2024-03-23T04:05:55;7.00;99.90
3713;DHT22;1872;51.406;6.856;2024-03-23T04:08:21;7.00;99.90
3713;DHT22;1872;51.406;6.856;2024-03-23T04:10:47;7.10;99.90
3713;DHT22;1872;51.406;6.856;2024-03-23T04:13:13;7.00;99.90
3713;DHT22;1872;51.406;6.856;2024-03-23T04:15:39;7.00;99.90
3713;DHT22;1872;51.406;6.856;2024-03-23T04:18:05;7.00;99.90
3713;DHT22;1872;51.406;6.856;2024-03-23T04:20:32;7.00;99.90
3713;DHT22;1872;51.406;6.856;2024-03-23T04:22:58;7.00;99.90
3713;DHT22;1872;51.406;6.856;2024-03-23T04:25:24;6.90;99.90
3713;DHT22;1872;51.406;6.856;2024-03-23T04:27:49;6.90;99.90
3713;DHT22;1872;51.406;6.856;2024-03-23T04:30:15;6.90;99.90
3713;DHT22;1872;51.406;6.856;2024-03-23T04:32:41;6.90;99.90
3713;DHT22;1872;51.406;6.856;2024-03-23T04:35:08;6.90;99.90
3713;DHT22;1872;51.406;6.856;2024-03-23T04:37:37;6.90;99.90
3713;DHT22;1872;51.406;6.856;2024-03-23T04:40:04;6.80;99.90
3713;DHT22;1872;51.406;6.856;2024-03-23T04:42:31;6.80;99.90
3713;DHT22;1872;51.406;6.856;2024-03-23T04:44:56;6.80;99.90
3713;DHT22;1872;51.406;6.856;2024-03-23T04:47:22;6.80;99.90
3713;DHT22;1872;51.406;6.856;2024-03-23T04:49:48;6.80;99.90
3713;DHT22;1872;51.406;6.856;2024-03-23T04:52:14;6.80;99.90
3713;DHT22;1872;51.406;6.856;2024-03-23T04:54:40;6.70;99.90
3713;DHT22;1872;51.406;6.856;2024-03-23T04:57:06;6.70;99.90
3713;DHT22;1872;51.406;6.856;2024-03-23T04:59:32;6.70;99.90
3713;DHT22;1872;51.406;6.856;2024-03-23T05:01:58;6.70;99.90
3713;DHT22;1872;51.406;6.856;2024-03-23T05:04:25;6.70;99.90
3713;DHT22;1872;51.406;6.856;2024-03-23T05:06:51;6.70;99.90
3713;DHT22;1872;51.406;6.856;2024-03-23T05:09:16;6.70;99.90
3713;DHT22;1872;51.406;6.856;2024-03-23T05:11:42;6.70;99.90
3713;DHT22;1872;51.406;6.856;2024-03-23T05:14:08;6.80;99.90
3713;DHT22;1872;51.406;6.856;2024-03-23T05:16:34;6.80;99.90
3713;DHT22;1872;51.406;6.856;2024-03-23T05:19:00;6.70;99.90
3713;DHT22;1872;51.406;6.856;2024-03-23T05:21:26;6.70;99.90
3713;DHT22;1872;51.406;6.856;2024-03-23T05:23:53;6.70;99.90
3713;DHT22;1872;51.406;6.856;2024-03-23T05:26:19;6.70;99.90
3713;DHT22;1872;51.406;6.856;2024-03-23T05:28:45;6.70;99.90
3713;DHT22;1872;51.406;6.856;2024-03-23T05:31:11;6.70;99.90
3713;DHT22;1872;51.406;6.856;2024-03-23T05:33:39;6.70;99.90
3713;DHT22;1872;51.406;6.856;2024-03-23T05:36:05;6.70;99.90
3713;DHT22;1872;51.406;6.856;2024-03-23T05:38:34;6.70;99.90
3713;DHT22;1872;51.406;6.856;2024-03-23T05:41:00;6.70;99.90
3713;DHT22;1872;51.406;6.856;2024-03-23T05:43:26;6.70;99.90
3713;DHT22;1872;51.406;6.856;2024-03-23T05:45:56;6.70;99.90
3713;DHT22;1872;51.406;6.856;2024-03-23T05:48:21;6.70;99.90
3713;DHT22;1872;51.406;6.856;2024-03-23T05:50:48;6.70;99.90
3713;DHT22;1872;51.406;6.856;2024-03-23T05:53:15;6.70;99.90
3713;DHT22;1872;51.406;6.856;2024-03-23T05:55:41;6.70;99.90
3713;DHT22;1872;51.406;6.856;2024-03-23T05:58:07;6.70;99.90
3713;DHT22;1872;51.406;6.856;2024-03-23T06:00:32;6.70;99.90
3713;DHT22;1872;51.406;6.856;2024-03-23T06:02:58;6.70;99.90
3713;DHT22;1872;51.406;6.856;2024-03-23T06:05:24;6.70;99.90
3713;DHT22;1872;51.406;6.856;2024-03-23T06:07:50;6.70;99.90
3713;DHT22;1872;51.406;6.856;2024-03-23T06:10:16;6.70;99.90
3713;DHT22;1872;51.406;6.856;2024-03-23T06:12:42;6.60;99.90
3713;DHT22;1872;51.406;6.856;2024-03-23T06:15:08;6.60;99.90
3713;DHT22;1872;51.406;6.856;2024-03-23T06:17:39;6.70;99.90
3713;DHT22;1872;51.406;6.856;2024-03-23T06:20:05;6.60;99.90
3713;DHT22;1872;51.406;6.856;2024-03-23T06:22:32;6.70;99.90
3713;DHT22;1872;51.406;6.856;2024-03-23T06:24:59;6.70;99.90
3713;DHT22;1872;51.406;6.856;2024-03-23T06:27:25;6.60;99.90
3713;DHT22;1872;51.406;6.856;2024-03-23T06:29:51;6.60;99.90
3713;DHT22;1872;51.406;6.856;2024-03-23T06:32:17;6.60;99.90
3713;DHT22;1872;51.406;6.856;2024-03-23T06:34:43;6.70;99.90
3713;DHT22;1872;51.406;6.856;2024-03-23T06:37:09;6.70;99.90
3713;DHT22;1872;51.406;6.856;2024-03-23T06:39:38;6.80;99.90
3713;DHT22;1872;51.406;6.856;2024-03-23T06:42:04;6.80;99.90
3713;DHT22;1872;51.406;6.856;2024-03-23T06:44:30;6.90;99.90
3713;DHT22;1872;51.406;6.856;2024-03-23T06:46:57;6.90;99.90
3713;DHT22;1872;51.406;6.856;2024-03-23T06:49:23;6.90;99.90
3713;DHT22;1872;51.406;6.856;2024-03-23T06:51:49;7.00;99.90
3713;DHT22;1872;51.406;6.856;2024-03-23T06:54:16;7.10;99.90
3713;DHT22;1872;51.406;6.856;2024-03-23T06:56:41;7.10;99.90
3713;DHT22;1872;51.406;6.856;2024-03-23T06:59:07;7.20;99.90
3713;DHT22;1872;51.406;6.856;2024-03-23T07:01:33;7.20;99.90
3713;DHT22;1872;51.406;6.856;2024-03-23T07:03:59;7.20;99.90
3713;DHT22;1872;51.406;6.856;2024-03-23T07:06:24;7.20;99.90
3713;DHT22;1872;51.406;6.856;2024-03-23T07:08:52;7.30;99.90
3713;DHT22;1872;51.406;6.856;2024-03-23T07:11:24;7.30;99.90
3713;DHT22;1872;51.406;6.856;2024-03-23T07:13:51;7.40;99.90
3713;DHT22;1872;51.406;6.856;2024-03-23T07:16:17;7.40;99.90
3713;DHT22;1872;51.406;6.856;2024-03-23T07:18:43;7.60;99.90
3713;DHT22;1872;51.406;6.856;2024-03-23T07:21:09;7.70;99.90
3713;DHT22;1872;51.406;6.856;2024-03-23T07:23:35;7.80;99.90
3713;DHT22;1872;51.406;6.856;2024-03-23T07:28:27;8.20;99.90
3713;DHT22;1872;51.406;6.856;2024-03-23T07:31:07;8.30;99.90
3713;DHT22;1872;51.406;6.856;2024-03-23T07:33:38;8.50;99.90
3713;DHT22;1872;51.406;6.856;2024-03-23T07:42:50;8.90;99.90
3713;DHT22;1872;51.406;6.856;2024-03-23T07:45:16;9.20;99.90
3713;DHT22;1872;51.406;6.856;2024-03-23T07:47:42;9.30;99.90
3713;DHT22;1872;51.406;6.856;2024-03-23T07:50:08;9.50;99.90
3713;DHT22;1872;51.406;6.856;2024-03-23T07:52:34;9.70;99.90
3713;DHT22;1872;51.406;6.856;2024-03-23T07:55:00;9.80;99.90
3713;DHT22;1872;51.406;6.856;2024-03-23T07:57:25;9.80;99.90
3713;DHT22;1872;51.406;6.856;2024-03-23T07:59:51;9.90;99.90
3713;DHT22;1872;51.406;6.856;2024-03-23T08:02:17;10.00;99.90
3713;DHT22;1872;51.406;6.856;2024-03-23T08:04:43;10.10;99.90
3713;DHT22;1872;51.406;6.856;2024-03-23T08:07:08;10.10;99.90
3713;DHT22;1872;51.406;6.856;2024-03-23T08:09:34;10.20;99.90
3713;DHT22;1872;51.406;6.856;2024-03-23T08:12:00;10.40;99.90
3713;DHT22;1872;51.406;6.856;2024-03-23T08:14:26;10.60;99.90
3713;DHT22;1872;51.406;6.856;2024-03-23T08:16:51;10.70;99.90
3713;DHT22;1872;51.406;6.856;2024-03-23T08:19:17;10.70;99.90
3713;DHT22;1872;51.406;6.856;2024-03-23T08:21:43;10.70;99.90
3713;DHT22;1872;51.406;6.856;2024-03-23T08:24:09;10.70;99.90
3713;DHT22;1872;51.406;6.856;2024-03-23T08:26:35;10.70;99.90
3713;DHT22;1872;51.406;6.856;2024-03-23T08:29:03;10.90;99.90
3713;DHT22;1872;51.406;6.856;2024-03-23T08:31:28;10.80;99.90
3713;DHT22;1872;51.406;6.856;2024-03-23T08:33:54;10.70;99.90
3713;DHT22;1872;51.406;6.856;2024-03-23T08:36:20;10.60;99.90
3713;DHT22;1872;51.406;6.856;2024-03-23T08:38:46;10.50;99.90
3713;DHT22;1872;51.406;6.856;2024-03-23T08:41:12;10.50;99.90
3713;DHT22;1872;51.406;6.856;2024-03-23T08:43:40;10.40;99.90
3713;DHT22;1872;51.406;6.856;2024-03-23T08:46:06;10.20;99.90
3713;DHT22;1872;51.406;6.856;2024-03-23T08:48:33;10.00;99.90
3713;DHT22;1872;51.406;6.856;2024-03-23T08:51:09;9.80;99.90
3713;DHT22;1872;51.406;6.856;2024-03-23T08:53:39;9.50;99.90
3713;DHT22;1872;51.406;6.856;2024-03-23T08:56:06;9.30;99.90
3713;DHT22;1872;51.406;6.856;2024-03-23T08:58:32;9.10;99.90
3713;DHT22;1872;51.406;6.856;2024-03-23T09:01:09;9.00;99.90
3713;DHT22;1872;51.406;6.856;2024-03-23T09:03:37;8.90;99.90
3713;DHT22;1872;51.406;6.856;2024-03-23T09:06:07;8.80;99.90
3713;DHT22;1872;51.406;6.856;2024-03-23T09:08:34;8.70;99.90
3713;DHT22;1872;51.406;6.856;2024-03-23T09:11:10;8.70;99.90
3713;DHT22;1872;51.406;6.856;2024-03-23T09:13:37;8.60;99.90
3713;DHT22;1872;51.406;6.856;2024-03-23T09:16:04;8.60;99.90
3713;DHT22;1872;51.406;6.856;2024-03-23T09:18:32;8.70;99.90
3713;DHT22;1872;51.406;6.856;2024-03-23T09:20:58;8.80;99.90
3713;DHT22;1872;51.406;6.856;2024-03-23T09:23:23;9.00;99.90
3713;DHT22;1872;51.406;6.856;2024-03-23T09:25:49;9.20;99.90
3713;DHT22;1872;51.406;6.856;2024-03-23T09:28:15;9.30;99.90
3713;DHT22;1872;51.406;6.856;2024-03-23T09:30:41;9.50;99.90
3713;DHT22;1872;51.406;6.856;2024-03-23T09:33:11;9.60;99.90
3713;DHT22;1872;51.406;6.856;2024-03-23T09:35:38;9.70;99.90
3713;DHT22;1872;51.406;6.856;2024-03-23T09:38:04;9.70;99.90
3713;DHT22;1872;51.406;6.856;2024-03-23T09:40:31;9.70;99.90
3713;DHT22;1872;51.406;6.856;2024-03-23T09:42:57;9.90;99.90
3713;DHT22;1872;51.406;6.856;2024-03-23T09:45:27;10.30;99.90
3713;DHT22;1872;51.406;6.856;2024-03-23T09:47:54;10.70;99.90
3713;DHT22;1872;51.406;6.856;2024-03-23T09:50:20;10.70;99.90
3713;DHT22;1872;51.406;6.856;2024-03-23T09:56:08;10.70;99.90
3713;DHT22;1872;51.406;6.856;2024-03-23T09:58:34;10.70;99.90
3713;DHT22;1872;51.406;6.856;2024-03-23T10:00:59;10.80;99.90
3713;DHT22;1872;51.406;6.856;2024-03-23T10:03:25;10.80;99.90
3713;DHT22;1872;51.406;6.856;2024-03-23T10:06:04;10.70;99.90
3713;DHT22;1872;51.406;6.856;2024-03-23T10:08:30;10.60;99.90
3713;DHT22;1872;51.406;6.856;2024-03-23T10:10:56;10.40;99.90
3713;DHT22;1872;51.406;6.856;2024-03-23T10:13:26;10.40;99.90
3713;DHT22;1872;51.406;6.856;2024-03-23T10:15:59;10.30;99.90
3713;DHT22;1872;51.406;6.856;2024-03-23T10:18:26;10.40;99.90
3713;DHT22;1872;51.406;6.856;2024-03-23T10:23:32;10.70;99.90
3713;DHT22;1872;51.406;6.856;2024-03-23T10:29:00;11.00;99.90
3713;DHT22;1872;51.406;6.856;2024-03-23T10:31:30;11.10;99.90
3713;DHT22;1872;51.406;6.856;2024-03-23T10:33:57;11.10;99.90
3713;DHT22;1872;51.406;6.856;2024-03-23T10:36:24;11.00;99.90
3713;DHT22;1872;51.406;6.856;2024-03-23T10:38:50;11.00;99.90
3713;DHT22;1872;51.406;6.856;2024-03-23T10:41:17;10.90;99.90
3713;DHT22;1872;51.406;6.856;2024-03-23T10:43:45;10.70;99.90
3713;DHT22;1872;51.406;6.856;2024-03-23T10:46:12;10.30;99.90
3713;DHT22;1872;51.406;6.856;2024-03-23T10:48:38;9.80;99.90
3713;DHT22;1872;51.406;6.856;2024-03-23T10:51:05;9.30;99.90
3713;DHT22;1872;51.406;6.856;2024-03-23T10:53:33;8.90;99.90
3713;DHT22;1872;51.406;6.856;2024-03-23T10:55:59;8.60;99.90
3713;DHT22;1872;51.406;6.856;2024-03-23T10:58:40;8.30;99.90
3713;DHT22;1872;51.406;6.856;2024-03-23T11:01:06;8.10;99.90
3713;DHT22;1872;51.406;6.856;2024-03-23T11:03:37;8.00;99.90
3713;DHT22;1872;51.406;6.856;2024-03-23T11:06:05;8.00;99.90
3713;DHT22;1872;51.406;6.856;2024-03-23T11:08:40;8.00;99.90
3713;DHT22;1872;51.406;6.856;2024-03-23T11:11:21;8.10;99.90
3713;DHT22;1872;51.406;6.856;2024-03-23T11:13:51;8.10;99.90
3713;DHT22;1872;51.406;6.856;2024-03-23T11:16:27;8.10;99.90
3713;DHT22;1872;51.406;6.856;2024-03-23T11:21:59;8.20;99.90
3713;DHT22;1872;51.406;6.856;2024-03-23T11:24:25;8.30;99.90
3713;DHT22;1872;51.406;6.856;2024-03-23T11:26:51;8.40;99.90
3713;DHT22;1872;51.406;6.856;2024-03-23T11:29:17;8.50;99.90
3713;DHT22;1872;51.406;6.856;2024-03-23T11:31:50;8.50;99.90
3713;DHT22;1872;51.406;6.856;2024-03-23T11:34:19;8.60;99.90
3713;DHT22;1872;51.406;6.856;2024-03-23T11:36:45;8.70;99.90
3713;DHT22;1872;51.406;6.856;2024-03-23T11:39:18;8.80;99.90
3713;DHT22;1872;51.406;6.856;2024-03-23T11:41:52;8.90;99.90
3713;DHT22;1872;51.406;6.856;2024-03-23T11:44:19;9.00;99.90
3713;DHT22;1872;51.406;6.856;2024-03-23T11:46:46;9.10;99.90
3713;DHT22;1872;51.406;6.856;2024-03-23T11:49:22;9.10;99.90
3713;DHT22;1872;51.406;6.856;2024-03-23T11:51:49;9.20;99.90
3713;DHT22;1872;51.406;6.856;2024-03-23T11:54:14;9.30;99.90
3713;DHT22;1872;51.406;6.856;2024-03-23T11:56:40;9.40;99.90
3713;DHT22;1872;51.406;6.856;2024-03-23T11:59:07;9.40;99.90
3713;DHT22;1872;51.406;6.856;2024-03-23T12:01:33;9.40;99.90
3713;DHT22;1872;51.406;6.856;2024-03-23T12:03:59;9.40;99.90
3713;DHT22;1872;51.406;6.856;2024-03-23T12:06:24;9.30;99.90
3713;DHT22;1872;51.406;6.856;2024-03-23T12:08:51;9.30;99.90
3713;DHT22;1872;51.406;6.856;2024-03-23T12:11:17;9.10;99.90
3713;DHT22;1872;51.406;6.856;2024-03-23T12:13:44;9.00;99.90
3713;DHT22;1872;51.406;6.856;2024-03-23T12:16:21;8.90;99.90
3713;DHT22;1872;51.406;6.856;2024-03-23T12:18:50;8.90;99.90
3713;DHT22;1872;51.406;6.856;2024-03-23T12:21:17;8.80;99.90
3713;DHT22;1872;51.406;6.856;2024-03-23T12:23:43;8.70;99.90
3713;DHT22;1872;51.406;6.856;2024-03-23T12:26:14;8.70;99.90
3713;DHT22;1872;51.406;6.856;2024-03-23T12:28:41;8.60;99.90
3713;DHT22;1872;51.406;6.856;2024-03-23T12:31:06;8.60;99.90
3713;DHT22;1872;51.406;6.856;2024-03-23T12:33:32;8.70;99.90
3713;DHT22;1872;51.406;6.856;2024-03-23T12:35:58;8.80;99.90
3713;DHT22;1872;51.406;6.856;2024-03-23T12:38:23;9.00;99.90
3713;DHT22;1872;51.406;6.856;2024-03-23T12:40:50;9.10;99.90
3713;DHT22;1872;51.406;6.856;2024-03-23T12:43:16;9.20;99.90
3713;DHT22;1872;51.406;6.856;2024-03-23T12:45:49;9.40;99.90
3713;DHT22;1872;51.406;6.856;2024-03-23T12:48:15;9.50;99.90
3713;DHT22;1872;51.406;6.856;2024-03-23T12:50:41;9.50;99.90
3713;DHT22;1872;51.406;6.856;2024-03-23T12:53:07;9.40;99.90
3713;DHT22;1872;51.406;6.856;2024-03-23T12:55:35;9.30;99.90
3713;DHT22;1872;51.406;6.856;2024-03-23T12:58:01;9.20;99.90
3713;DHT22;1872;51.406;6.856;2024-03-23T13:00:27;8.90;99.90
3713;DHT22;1872;51.406;6.856;2024-03-23T13:02:52;8.70;99.90
3713;DHT22;1872;51.406;6.856;2024-03-23T13:05:18;8.40;99.90
3713;DHT22;1872;51.406;6.856;2024-03-23T13:07:44;8.40;99.90
3713;DHT22;1872;51.406;6.856;2024-03-23T13:10:09;8.40;99.90
3713;DHT22;1872;51.406;6.856;2024-03-23T13:12:35;8.50;99.90
3713;DHT22;1872;51.406;6.856;2024-03-23T13:15:03;8.60;99.90
3713;DHT22;1872;51.406;6.856;2024-03-23T13:17:29;8.70;99.90
3713;DHT22;1872;51.406;6.856;2024-03-23T13:19:55;8.90;99.90
3713;DHT22;1872;51.406;6.856;2024-03-23T13:22:23;9.00;99.90
3713;DHT22;1872;51.406;6.856;2024-03-23T13:24:49;9.10;99.90
3713;DHT22;1872;51.406;6.856;2024-03-23T13:27:16;9.10;99.90
3713;DHT22;1872;51.406;6.856;2024-03-23T13:29:41;9.10;99.90
3713;DHT22;1872;51.406;6.856;2024-03-23T13:32:07;9.20;99.90
3713;DHT22;1872;51.406;6.856;2024-03-23T13:34:33;9.20;99.90
3713;DHT22;1872;51.406;6.856;2024-03-23T13:37:00;9.20;99.90
3713;DHT22;1872;51.406;6.856;2024-03-23T13:39:26;9.20;99.90
3713;DHT22;1872;51.406;6.856;2024-03-23T13:41:55;9.10;99.90
3713;DHT22;1872;51.406;6.856;2024-03-23T13:44:23;9.10;99.90
3713;DHT22;1872;51.406;6.856;2024-03-23T13:46:49;9.00;99.90
3713;DHT22;1872;51.406;6.856;2024-03-23T13:49:28;9.00;99.90
3713;DHT22;1872;51.406;6.856;2024-03-23T13:51:55;9.10;99.90
3713;DHT22;1872;51.406;6.856;2024-03-23T13:54:22;9.20;99.90
3713;DHT22;1872;51.406;6.856;2024-03-23T13:56:50;9.40;99.90
3713;DHT22;1872;51.406;6.856;2024-03-23T13:59:16;9.50;99.90
3713;DHT22;1872;51.406;6.856;2024-03-23T14:01:42;9.50;99.90
3713;DHT22;1872;51.406;6.856;2024-03-23T14:04:08;9.50;99.90
3713;DHT22;1872;51.406;6.856;2024-03-23T14:06:35;9.50;99.90
3713;DHT22;1872;51.406;6.856;2024-03-23T14:09:01;9.50;99.90
3713;DHT22;1872;51.406;6.856;2024-03-23T14:11:29;9.60;99.90
3713;DHT22;1872;51.406;6.856;2024-03-23T14:13:55;9.50;99.90
3713;DHT22;1872;51.406;6.856;2024-03-23T14:16:21;9.60;99.90
3713;DHT22;1872;51.406;6.856;2024-03-23T14:18:47;9.60;99.90
3713;DHT22;1872;51.406;6.856;2024-03-23T14:21:13;9.60;99.90
3713;DHT22;1872;51.406;6.856;2024-03-23T14:23:38;9.50;99.90
3713;DHT22;1872;51.406;6.856;2024-03-23T14:26:06;9.50;99.90
3713;DHT22;1872;51.406;6.856;2024-03-23T14:28:32;9.40;99.90
3713;DHT22;1872;51.406;6.856;2024-03-23T14:30:58;9.50;99.90
3713;DHT22;1872;51.406;6.856;2024-03-23T14:33:24;9.60;99.90
3713;DHT22;1872;51.406;6.856;2024-03-23T14:35:54;9.70;99.90
3713;DHT22;1872;51.406;6.856;2024-03-23T14:38:21;9.70;99.90
3713;DHT22;1872;51.406;6.856;2024-03-23T14:40:47;9.70;99.90
3713;DHT22;1872;51.406;6.856;2024-03-23T14:43:13;9.60;99.90
3713;DHT22;1872;51.406;6.856;2024-03-23T14:46:09;9.50;99.90
3713;DHT22;1872;51.406;6.856;2024-03-23T14:48:37;9.50;99.90
3713;DHT22;1872;51.406;6.856;2024-03-23T14:51:03;9.40;99.90
3713;DHT22;1872;51.406;6.856;2024-03-23T14:53:37;9.30;99.90
3713;DHT22;1872;51.406;6.856;2024-03-23T14:56:06;9.30;99.90
3713;DHT22;1872;51.406;6.856;2024-03-23T14:58:32;9.20;99.90
3713;DHT22;1872;51.406;6.856;2024-03-23T15:01:04;9.10;99.90
3713;DHT22;1872;51.406;6.856;2024-03-23T15:03:30;9.10;99.90
3713;DHT22;1872;51.406;6.856;2024-03-23T15:05:56;9.10;99.90
3713;DHT22;1872;51.406;6.856;2024-03-23T15:08:23;9.10;99.90
3713;DHT22;1872;51.406;6.856;2024-03-23T15:10:49;9.20;99.90
3713;DHT22;1872;51.406;6.856;2024-03-23T15:13:16;9.40;99.90
3713;DHT22;1872;51.406;6.856;2024-03-23T15:15:42;9.50;99.90
3713;DHT22;1872;51.406;6.856;2024-03-23T15:18:11;9.50;99.90
3713;DHT22;1872;51.406;6.856;2024-03-23T15:20:38;9.50;99.90
3713;DHT22;1872;51.406;6.856;2024-03-23T15:23:04;9.50;99.90
3713;DHT22;1872;51.406;6.856;2024-03-23T15:25:30;9.40;99.90
3713;DHT22;1872;51.406;6.856;2024-03-23T15:27:57;9.40;99.90
3713;DHT22;1872;51.406;6.856;2024-03-23T15:30:24;9.30;99.90
3713;DHT22;1872;51.406;6.856;2024-03-23T15:32:50;9.30;99.90
3713;DHT22;1872;51.406;6.856;2024-03-23T15:35:16;9.30;99.90
3713;DHT22;1872;51.406;6.856;2024-03-23T15:37:43;9.30;99.90
3713;DHT22;1872;51.406;6.856;2024-03-23T15:40:09;9.30;99.90
3713;DHT22;1872;51.406;6.856;2024-03-23T15:42:35;9.30;99.90
3713;DHT22;1872;51.406;6.856;2024-03-23T15:45:01;9.20;99.90
3713;DHT22;1872;51.406;6.856;2024-03-23T15:47:29;9.20;99.90
3713;DHT22;1872;51.406;6.856;2024-03-23T15:49:54;9.10;99.90
3713;DHT22;1872;51.406;6.856;2024-03-23T15:52:21;9.10;99.90
3713;DHT22;1872;51.406;6.856;2024-03-23T15:54:47;9.10;99.90
3713;DHT22;1872;51.406;6.856;2024-03-23T15:57:12;9.10;99.90
3713;DHT22;1872;51.406;6.856;2024-03-23T15:59:41;9.10;99.90
3713;DHT22;1872;51.406;6.856;2024-03-23T16:02:07;9.10;99.90
3713;DHT22;1872;51.406;6.856;2024-03-23T16:04:33;9.00;99.90
3713;DHT22;1872;51.406;6.856;2024-03-23T16:06:58;9.00;99.90
3713;DHT22;1872;51.406;6.856;2024-03-23T16:09:24;8.90;99.90
3713;DHT22;1872;51.406;6.856;2024-03-23T16:11:51;8.90;99.90
3713;DHT22;1872;51.406;6.856;2024-03-23T16:14:17;8.90;99.90
3713;DHT22;1872;51.406;6.856;2024-03-23T16:16:42;9.00;99.90
3713;DHT22;1872;51.406;6.856;2024-03-23T16:19:08;9.00;99.90
3713;DHT22;1872;51.406;6.856;2024-03-23T16:21:34;9.00;99.90
3713;DHT22;1872;51.406;6.856;2024-03-23T16:23:59;9.10;99.90
3713;DHT22;1872;51.406;6.856;2024-03-23T16:26:25;9.10;99.90
3713;DHT22;1872;51.406;6.856;2024-03-23T16:28:51;9.00;99.90
3713;DHT22;1872;51.406;6.856;2024-03-23T16:31:16;9.00;99.90
3713;DHT22;1872;51.406;6.856;2024-03-23T16:33:42;9.00;99.90
3713;DHT22;1872;51.406;6.856;2024-03-23T16:36:11;8.90;99.90
3713;DHT22;1872;51.406;6.856;2024-03-23T16:38:41;8.80;99.90
3713;DHT22;1872;51.406;6.856;2024-03-23T16:43:37;8.60;99.90
3713;DHT22;1872;51.406;6.856;2024-03-23T16:46:05;8.50;99.90
3713;DHT22;1872;51.406;6.856;2024-03-23T16:48:32;8.40;99.90
3713;DHT22;1872;51.406;6.856;2024-03-23T16:51:02;8.40;99.90
3713;DHT22;1872;51.406;6.856;2024-03-23T16:53:31;8.30;99.90
3713;DHT22;1872;51.406;6.856;2024-03-23T16:55:58;8.30;99.90
3713;DHT22;1872;51.406;6.856;2024-03-23T16:58:25;8.30;99.90
3713;DHT22;1872;51.406;6.856;2024-03-23T17:00:51;8.30;99.90
3713;DHT22;1872;51.406;6.856;2024-03-23T17:03:19;8.30;99.90
3713;DHT22;1872;51.406;6.856;2024-03-23T17:05:45;8.20;99.90
3713;DHT22;1872;51.406;6.856;2024-03-23T17:08:11;8.20;99.90
3713;DHT22;1872;51.406;6.856;2024-03-23T17:10:39;8.10;99.90
3713;DHT22;1872;51.406;6.856;2024-03-23T17:13:05;7.90;99.90
3713;DHT22;1872;51.406;6.856;2024-03-23T17:15:31;7.90;99.90
3713;DHT22;1872;51.406;6.856;2024-03-23T17:17:56;7.80;99.90
3713;DHT22;1872;51.406;6.856;2024-03-23T17:20:22;7.70;99.90
3713;DHT22;1872;51.406;6.856;2024-03-23T17:22:55;7.60;99.90
3713;DHT22;1872;51.406;6.856;2024-03-23T17:25:22;7.50;99.90
3713;DHT22;1872;51.406;6.856;2024-03-23T17:27:48;7.50;99.90
3713;DHT22;1872;51.406;6.856;2024-03-23T17:30:14;7.50;99.90